createdAt,value
2018-09-29T00:36:16.290Z,77.28
2018-09-29T00:37:01.395Z,77.05
2018-09-29T00:38:01.327Z,77.28
2018-09-29T00:39:01.287Z,77.84
2018-09-29T00:40:01.124Z,77.37
2018-09-29T00:41:01.357Z,77.94
2018-09-29T00:42:01.333Z,77.84
2018-09-29T00:43:01.250Z,77.75
2018-09-29T00:45:01.250Z,77.75
2018-09-29T00:46:01.167Z,77.47
2018-09-29T00:47:02.045Z,77.66
2018-09-29T00:48:01.107Z,77.37
2018-09-29T00:49:01.773Z,77.94
2018-09-29T00:50:01.080Z,77.75
2018-09-29T00:51:01.003Z,77.66
2018-09-29T00:53:01.092Z,77.94
2018-09-29T00:54:01.069Z,77.84
2018-09-29T00:55:01.020Z,77.66
2018-09-29T00:56:01.097Z,77.84
2018-09-29T00:57:01.037Z,77.75
2018-09-29T00:58:01.102Z,78.13
2018-09-29T00:59:00.887Z,77.84
2018-09-29T01:00:00.896Z,77.75
2018-09-29T01:01:01.434Z,77.84
2018-09-29T01:02:00.948Z,77.75
2018-09-29T01:03:01.460Z,77.84
2018-09-29T01:04:00.919Z,77.94
2018-09-29T01:06:00.746Z,77.94
2018-09-29T01:07:00.655Z,77.84
2018-09-29T01:08:00.840Z,77.94
2018-09-29T01:09:03.497Z,77.94
2018-09-29T01:10:00.727Z,77.94
2018-09-29T01:12:00.679Z,77.94
2018-09-29T01:13:00.765Z,78.03
2018-09-29T01:14:00.628Z,78.13
2018-09-29T01:15:01.130Z,77.84
2018-09-29T01:16:00.764Z,78.42
2018-09-29T01:18:00.640Z,78.42
2018-09-29T01:19:00.626Z,78.19
2018-09-29T01:20:02.227Z,78.28
2018-09-29T01:21:00.593Z,78.09
2018-09-29T01:23:00.514Z,78.19
2018-09-29T01:25:00.448Z,77.90
2018-09-29T01:27:03.464Z,77.71
2018-09-29T01:28:00.482Z,77.52
2018-09-29T01:29:00.390Z,77.81
2018-09-29T01:30:00.304Z,77.81
2018-09-29T01:31:00.238Z,77.81
2018-09-29T01:32:00.426Z,78.00
2018-09-29T01:33:00.473Z,77.90
2018-09-29T01:34:01.479Z,78.09
2018-09-29T01:35:00.975Z,78.00
2018-09-29T01:36:00.280Z,78.09
2018-09-29T01:37:00.421Z,78.19
2018-09-29T01:39:00.395Z,78.09
2018-09-29T01:40:00.278Z,77.71
2018-09-29T01:41:00.368Z,77.71
2018-09-29T01:42:00.184Z,77.90
2018-09-29T01:43:00.261Z,77.90
2018-09-29T01:44:00.215Z,78.00
2018-09-29T01:45:00.291Z,77.90
2018-09-29T01:46:00.172Z,77.90
2018-09-29T01:47:00.074Z,77.81
2018-09-29T01:52:06.936Z,77.90
2018-09-29T01:53:06.968Z,77.90
2018-09-29T02:10:36.292Z,78.81
2018-09-29T02:12:37.836Z,79.10
2018-09-29T02:13:36.161Z,79.10
2018-09-29T02:14:36.741Z,79.38
2018-09-29T02:15:36.229Z,79.19
2018-09-29T02:17:36.177Z,79.28
2018-09-29T02:19:36.173Z,79.00
2018-09-29T02:20:36.088Z,79.19
2018-09-29T02:21:36.005Z,79.10
2018-09-29T02:23:35.994Z,79.47
2018-09-29T02:24:36.012Z,79.47
2018-09-29T02:25:35.966Z,80.04
2018-09-29T02:26:36.007Z,80.24
2018-09-29T02:29:36.691Z,80.52
2018-09-29T02:30:35.960Z,80.80
2018-09-29T02:31:36.781Z,81.09
2018-09-29T02:32:35.928Z,81.18
2018-09-29T02:33:35.917Z,80.90
2018-09-29T02:34:37.662Z,80.75
2018-09-29T02:35:35.805Z,80.56
2018-09-29T02:36:36.313Z,80.94
2018-09-29T02:38:37.755Z,80.84
2018-09-29T02:39:35.721Z,81.04
2018-09-29T02:40:35.817Z,81.04
2018-09-29T02:41:36.315Z,80.84
2018-09-29T02:42:40.275Z,80.56
2018-09-29T02:43:42.272Z,81.04
2018-09-29T02:45:36.154Z,80.75
2018-09-29T02:46:36.157Z,80.65
2018-09-29T02:47:35.611Z,80.94
2018-09-29T02:48:35.660Z,80.56
2018-09-29T02:49:35.657Z,80.65
2018-09-29T02:50:35.611Z,80.65
2018-09-29T02:51:35.581Z,80.75
2018-09-29T02:52:35.517Z,80.84
2018-09-29T02:53:56.579Z,80.84
2018-09-29T02:54:35.500Z,80.94
2018-09-29T02:56:36.274Z,80.37
2018-09-29T03:03:00.733Z,79.76
2018-09-29T03:03:52.427Z,80.04
2018-09-29T03:04:53.293Z,80.04
2018-09-29T03:05:54.286Z,80.24
2018-09-29T03:07:52.364Z,80.24
2018-09-29T03:09:53.725Z,79.95
2018-09-29T03:10:52.315Z,80.24
2018-09-29T03:11:53.318Z,80.43
2018-09-29T03:12:52.307Z,80.24
2018-09-29T03:13:53.789Z,80.24
2018-09-29T03:14:52.836Z,80.43
2018-09-29T03:15:52.157Z,80.04
2018-09-29T03:16:52.205Z,80.24
2018-09-29T03:17:52.798Z,80.24
2018-09-29T03:18:52.131Z,80.04
2018-09-29T03:19:53.678Z,80.33
2018-09-29T03:20:52.518Z,80.24
2018-09-29T03:21:52.100Z,80.52
2018-09-29T03:22:52.106Z,80.62
2018-09-29T03:23:52.050Z,80.43
2018-09-29T03:24:58.757Z,80.33
2018-09-29T03:25:51.998Z,80.24
2018-09-29T03:26:53.765Z,80.24
2018-09-29T03:27:52.051Z,80.24
2018-09-29T03:28:52.006Z,80.04
2018-09-29T03:29:51.916Z,80.14
2018-09-29T03:30:52.427Z,80.24
2018-09-29T03:31:51.903Z,80.24
2018-09-29T03:32:52.873Z,80.24
2018-09-29T03:33:52.490Z,80.52
2018-09-29T03:34:51.862Z,80.52
2018-09-29T03:35:52.875Z,79.95
2018-09-29T03:36:51.869Z,79.85
2018-09-29T03:37:51.738Z,80.33
2018-09-29T03:49:02.673Z,80.33
2018-09-29T03:50:01.089Z,80.24
2018-09-29T03:51:00.614Z,80.00
2018-09-29T03:53:00.552Z,79.95
2018-09-29T03:56:03.174Z,80.24
2018-09-29T03:57:00.443Z,80.24
2018-09-29T03:58:00.332Z,80.14
2018-09-29T03:59:00.400Z,80.33
2018-09-29T04:00:00.996Z,80.90
2018-09-29T04:01:01.151Z,80.80
2018-09-29T04:02:01.129Z,80.71
2018-09-29T04:04:05.032Z,81.94
2018-09-29T04:05:00.256Z,81.94
2018-09-29T04:06:00.223Z,82.32
2018-09-29T04:09:00.800Z,82.04
2018-09-29T04:10:00.187Z,82.23
2018-09-29T04:11:36.763Z,81.56
2018-09-29T04:12:00.185Z,81.66
2018-09-29T04:13:00.138Z,82.04
2018-09-29T04:14:02.706Z,81.70
2018-09-29T04:15:00.178Z,81.60
2018-09-29T04:16:00.140Z,81.32
2018-09-29T04:16:59.989Z,81.04
2018-09-29T04:19:01.677Z,80.75
2018-09-29T04:21:01.543Z,80.75
2018-09-29T04:22:01.668Z,80.75
2018-09-29T04:24:01.613Z,80.94
2018-09-29T04:25:02.685Z,80.94
2018-09-29T04:27:00.690Z,80.08
2018-09-29T04:27:59.968Z,80.46
2018-09-29T04:28:59.949Z,80.65
2018-09-29T04:29:59.919Z,81.04
2018-09-29T04:30:59.921Z,80.75
2018-09-29T04:31:59.899Z,80.75
2018-09-29T04:33:02.215Z,80.75
2018-09-29T04:33:59.763Z,80.75
2018-09-29T04:35:59.818Z,81.13
2018-09-29T04:36:59.835Z,80.94
2018-09-29T04:37:59.682Z,81.70
2018-09-29T04:39:01.692Z,82.27
2018-09-29T04:40:01.685Z,82.17
2018-09-29T04:40:59.747Z,82.55
2018-09-29T04:42:05.217Z,82.36
2018-09-29T04:43:00.719Z,82.55
2018-09-29T04:44:00.137Z,82.46
2018-09-29T04:44:59.573Z,82.65
2018-09-29T04:46:00.718Z,82.46
2018-09-29T04:46:59.543Z,82.17
2018-09-29T04:47:59.583Z,81.79
2018-09-29T04:49:59.591Z,82.17
2018-09-29T04:51:02.160Z,81.51
2018-09-29T04:51:59.497Z,81.60
2018-09-29T04:53:02.187Z,81.23
2018-09-29T04:54:00.086Z,81.04
2018-09-29T04:55:02.193Z,80.84
2018-09-29T04:55:59.398Z,80.37
2018-09-29T04:57:20.478Z,80.75
2018-09-29T04:58:59.416Z,80.37
2018-09-29T04:59:59.281Z,80.27
2018-09-29T05:04:59.277Z,80.32
2018-09-29T05:05:59.802Z,79.74
2018-09-29T05:07:59.299Z,79.65
2018-09-29T05:09:59.096Z,79.84
2018-09-29T05:11:01.632Z,79.94
2018-09-29T05:12:04.174Z,80.03
2018-09-29T05:13:01.585Z,79.74
2018-09-29T05:13:59.190Z,80.03
2018-09-29T05:15:21.706Z,80.03
2018-09-29T05:16:59.132Z,79.84
2018-09-29T05:17:59.683Z,80.13
2018-09-29T05:19:09.701Z,80.41
2018-09-29T05:20:01.703Z,80.51
2018-09-29T05:21:59.042Z,80.03
2018-09-29T05:22:59.708Z,79.84
2018-09-29T05:24:03.541Z,80.16
2018-09-29T05:24:59.536Z,79.50
2018-09-29T05:25:59.655Z,79.41
2018-09-29T05:27:00.657Z,79.41
2018-09-29T05:27:58.979Z,79.22
2018-09-29T06:26:55.283Z,64.75
2018-09-29T06:27:45.755Z,63.99
2018-09-29T06:29:02.364Z,64.09
2018-09-29T06:29:41.291Z,63.83
2018-09-29T06:42:48.548Z,58.27
2018-09-29T06:49:34.341Z,53.27
2018-09-29T06:59:19.077Z,44.96
2018-09-29T06:59:54.048Z,44.21
2018-09-29T07:03:59.233Z,38.97
2018-09-29T07:04:51.985Z,37.45
2018-09-29T07:05:53.710Z,37.65
2018-09-29T07:06:51.971Z,37.96
2018-09-29T07:07:51.976Z,37.40
2018-09-29T07:08:53.784Z,36.94
2018-09-29T07:09:51.914Z,35.50
2018-09-29T07:10:52.010Z,34.94
2018-09-29T07:11:51.882Z,33.89
2018-09-29T07:13:06.786Z,33.23
2018-09-29T07:13:56.798Z,32.67
2018-09-29T07:14:51.956Z,31.89
2018-09-29T07:15:51.942Z,32.12
2018-09-29T07:16:53.710Z,31.74
2018-09-29T07:17:56.723Z,31.18
2018-09-29T07:18:56.807Z,30.11
2018-09-29T07:20:52.806Z,29.16
2018-09-29T07:22:51.930Z,27.25
2018-09-29T07:24:17.812Z,27.36
2018-09-29T07:25:06.857Z,26.39
2018-09-29T07:26:07.868Z,26.40
2018-09-29T07:26:52.772Z,25.24
2018-09-29T07:27:53.834Z,25.45
2018-09-29T07:28:51.943Z,24.57
2018-09-29T07:29:51.920Z,24.10
2018-09-29T07:32:36.558Z,23.14
2018-09-29T07:33:48.172Z,23.25
2018-09-29T07:34:47.610Z,22.87
2018-09-29T07:35:31.973Z,22.88
2018-09-29T07:36:32.004Z,22.02
2018-09-29T07:37:46.559Z,22.03
2018-09-29T07:47:19.885Z,17.41
2018-09-29T07:48:16.472Z,17.92
2018-09-29T07:53:48.114Z,16.00
2018-09-29T07:54:32.545Z,15.41
2018-09-29T08:02:21.119Z,14.45
2018-09-29T08:05:47.205Z,13.28
2018-09-29T08:07:45.645Z,13.59
2018-09-29T08:08:45.591Z,13.29
2018-09-29T08:09:48.631Z,12.60
2018-09-29T08:11:45.665Z,12.50
2018-09-29T08:12:45.673Z,12.71
2018-09-29T08:13:45.664Z,12.62
2018-09-29T08:14:45.639Z,12.02
2018-09-29T08:16:45.697Z,12.21
2018-09-29T08:17:45.698Z,11.93
2018-09-29T08:19:45.602Z,11.84
2018-09-29T08:21:45.701Z,11.15
2018-09-29T08:22:48.202Z,11.25
2018-09-29T08:25:45.725Z,10.47
2018-09-29T08:29:45.744Z,10.28
2018-09-29T08:30:45.718Z,10.18
2018-09-29T08:31:45.755Z,9.58
2018-09-29T08:32:45.722Z,10.07
2018-09-29T08:33:45.730Z,10.17
2018-09-29T08:36:45.772Z,10.27
2018-09-29T08:37:45.752Z,10.07
2018-09-29T08:38:45.801Z,9.77
2018-09-29T08:46:23.351Z,9.20
2018-09-29T08:47:12.815Z,8.60
2018-09-29T08:49:09.230Z,8.50
2018-09-29T08:53:21.507Z,8.40
2018-09-29T08:54:13.408Z,9.39
2018-09-29T08:58:11.039Z,9.49
2018-09-29T08:59:44.958Z,9.08
2018-09-29T09:00:42.363Z,8.96
2018-09-29T09:02:53.245Z,11.03
2018-09-29T09:10:42.061Z,8.79
2018-09-29T09:29:14.745Z,16.45
2018-09-29T09:34:28.127Z,20.04
2018-09-29T09:35:16.029Z,20.72
2018-09-29T12:02:35.708Z,15.86
2018-09-29T12:05:00.603Z,15.86
2018-09-29T12:14:15.205Z,10.52
2018-09-29T12:19:32.337Z,9.05
2018-09-29T12:20:31.221Z,8.86
2018-09-29T12:23:25.949Z,11.25
2018-09-29T12:50:20.213Z,8.45
2018-09-29T13:07:02.010Z,10.64
2018-09-29T13:27:47.965Z,13.98
2018-09-29T13:29:42.846Z,15.22
2018-09-29T13:30:42.170Z,16.08
2018-09-29T13:31:43.843Z,16.46
2018-09-29T13:32:41.179Z,16.85
2018-09-29T13:33:42.223Z,17.43
2018-09-29T13:34:47.730Z,17.32
2018-09-29T13:35:41.160Z,18.00
2018-09-29T13:37:02.149Z,18.09
2018-09-29T13:37:56.683Z,18.29
2018-09-29T13:38:43.684Z,18.58
2018-09-29T14:27:36.564Z,13.89
2018-09-29T14:31:42.895Z,13.56
